Tarrant West's Hourly Summary for Sunday, March 19, 2017
Hour Temp
(f)
RH
(%)
Solar Rad.
(MJ/m2)
Rainfall
(in)
Wind
(mph)
3/19/2017 12:00 AM 65 82 0 0 6.13
3/19/2017 1:00 AM 64 84 0 0 5.7
3/19/2017 2:00 AM 63 87 0 0 4.8
3/19/2017 3:00 AM 62 88 0 0 4.95
3/19/2017 4:00 AM 61 90 0 0 6.15
3/19/2017 5:00 AM 62 89 0 0 8.85
3/19/2017 6:00 AM 62 92 0 0 8.22
3/19/2017 7:00 AM 60 95 0.01 0 6.4
3/19/2017 8:00 AM 61 97 0.12 0 8.57
3/19/2017 9:00 AM 66 89 0.78 0 9.65
3/19/2017 10:00 AM 72 73 1.72 0 10.93
3/19/2017 11:00 AM 76 64 2.24 0 10.9
3/19/2017 12:00 PM 78 57 2.62 0 11.82
3/19/2017 1:00 PM 80 51 3.06 0 12.53
3/19/2017 2:00 PM 82 47 2.85 0 13.75
3/19/2017 3:00 PM 83 44 2.65 0 14.15
3/19/2017 4:00 PM 84 43 1.59 0 14.07
3/19/2017 5:00 PM 82 46 1.23 0 17.63
3/19/2017 6:00 PM 81 48 0.58 0 16.85
3/19/2017 7:00 PM 77 53 0.16 0 13
3/19/2017 8:00 PM 74 58 0 0 13.75
3/19/2017 9:00 PM 72 60 0 0 13.32
3/19/2017 10:00 PM 71 61 0 0 14.7
3/19/2017 11:00 PM 70 64 0 0 13.57
Data Summary 71 69 19.61 0.00 10.85